sensor_id;sensor_type;location;lat;lon;timestamp;temperature;humidity
42141;DHT22;27809;51.864;5.646;2024-03-23T00:56:02;8.10;79.70
42141;DHT22;27809;51.864;5.646;2024-03-23T00:58:29;8.10;80.00
42141;DHT22;27809;51.864;5.646;2024-03-23T01:00:54;8.10;79.90
42141;DHT22;27809;51.864;5.646;2024-03-23T01:03:20;8.00;79.90
42141;DHT22;27809;51.864;5.646;2024-03-23T01:05:46;8.00;80.40
42141;DHT22;27809;51.864;5.646;2024-03-23T01:08:11;8.10;80.70
42141;DHT22;27809;51.864;5.646;2024-03-23T01:10:37;8.10;80.90
42141;DHT22;27809;51.864;5.646;2024-03-23T01:13:02;8.10;80.90
42141;DHT22;27809;51.864;5.646;2024-03-23T01:15:28;8.10;80.80
42141;DHT22;27809;51.864;5.646;2024-03-23T01:17:53;8.10;81.00
42141;DHT22;27809;51.864;5.646;2024-03-23T01:20:19;8.10;81.30
42141;DHT22;27809;51.864;5.646;2024-03-23T01:22:45;8.10;81.20
42141;DHT22;27809;51.864;5.646;2024-03-23T01:25:10;8.10;81.40
42141;DHT22;27809;51.864;5.646;2024-03-23T01:27:36;8.10;81.30
42141;DHT22;27809;51.864;5.646;2024-03-23T01:30:01;8.10;81.30
42141;DHT22;27809;51.864;5.646;2024-03-23T01:32:27;8.10;82.20
42141;DHT22;27809;51.864;5.646;2024-03-23T01:34:52;8.20;82.20
42141;DHT22;27809;51.864;5.646;2024-03-23T01:37:18;8.20;82.30
42141;DHT22;27809;51.864;5.646;2024-03-23T01:39:44;8.20;82.40
42141;DHT22;27809;51.864;5.646;2024-03-23T01:42:09;8.20;82.10
42141;DHT22;27809;51.864;5.646;2024-03-23T01:44:35;8.20;82.10
42141;DHT22;27809;51.864;5.646;2024-03-23T01:47:01;8.20;82.40
42141;DHT22;27809;51.864;5.646;2024-03-23T01:49:27;8.20;82.70
42141;DHT22;27809;51.864;5.646;2024-03-23T01:51:52;8.20;82.80
42141;DHT22;27809;51.864;5.646;2024-03-23T01:54:18;8.20;83.00
42141;DHT22;27809;51.864;5.646;2024-03-23T01:56:44;8.20;83.30
42141;DHT22;27809;51.864;5.646;2024-03-23T01:59:10;8.20;83.20
42141;DHT22;27809;51.864;5.646;2024-03-23T02:01:36;8.20;83.10
42141;DHT22;27809;51.864;5.646;2024-03-23T02:04:01;8.20;83.40
42141;DHT22;27809;51.864;5.646;2024-03-23T02:06:27;8.20;83.60
42141;DHT22;27809;51.864;5.646;2024-03-23T02:08:54;8.20;83.80
42141;DHT22;27809;51.864;5.646;2024-03-23T02:11:20;8.20;84.30
42141;DHT22;27809;51.864;5.646;2024-03-23T02:13:46;8.20;83.90
42141;DHT22;27809;51.864;5.646;2024-03-23T02:16:11;8.20;83.70
42141;DHT22;27809;51.864;5.646;2024-03-23T02:18:38;8.20;83.80
42141;DHT22;27809;51.864;5.646;2024-03-23T02:21:04;8.20;83.80
42141;DHT22;27809;51.864;5.646;2024-03-23T02:23:30;8.20;84.40
42141;DHT22;27809;51.864;5.646;2024-03-23T02:25:56;8.20;85.20
42141;DHT22;27809;51.864;5.646;2024-03-23T02:28:21;8.20;85.60
42141;DHT22;27809;51.864;5.646;2024-03-23T02:30:49;8.20;85.50
42141;DHT22;27809;51.864;5.646;2024-03-23T02:33:15;8.20;85.60
42141;DHT22;27809;51.864;5.646;2024-03-23T02:35:40;8.20;85.90
42141;DHT22;27809;51.864;5.646;2024-03-23T02:38:06;8.20;85.90
42141;DHT22;27809;51.864;5.646;2024-03-23T02:40:32;8.20;86.00
42141;DHT22;27809;51.864;5.646;2024-03-23T02:42:57;8.20;86.30
42141;DHT22;27809;51.864;5.646;2024-03-23T02:45:23;8.20;87.20
42141;DHT22;27809;51.864;5.646;2024-03-23T02:47:48;8.20;87.30
42141;DHT22;27809;51.864;5.646;2024-03-23T02:50:20;8.30;87.40
42141;DHT22;27809;51.864;5.646;2024-03-23T02:52:46;8.30;87.20
42141;DHT22;27809;51.864;5.646;2024-03-23T02:55:12;8.20;86.90
42141;DHT22;27809;51.864;5.646;2024-03-23T02:57:38;8.20;86.70
42141;DHT22;27809;51.864;5.646;2024-03-23T03:00:04;8.20;86.60
42141;DHT22;27809;51.864;5.646;2024-03-23T03:02:31;8.20;86.30
42141;DHT22;27809;51.864;5.646;2024-03-23T03:04:57;8.10;86.40
42141;DHT22;27809;51.864;5.646;2024-03-23T03:07:23;8.20;86.70
42141;DHT22;27809;51.864;5.646;2024-03-23T03:09:48;8.10;86.50
42141;DHT22;27809;51.864;5.646;2024-03-23T03:12:14;8.10;86.10
42141;DHT22;27809;51.864;5.646;2024-03-23T03:14:39;8.00;85.20
42141;DHT22;27809;51.864;5.646;2024-03-23T03:17:05;8.00;84.40
42141;DHT22;27809;51.864;5.646;2024-03-23T03:19:31;7.90;83.80
42141;DHT22;27809;51.864;5.646;2024-03-23T03:21:57;7.80;82.90
42141;DHT22;27809;51.864;5.646;2024-03-23T03:24:23;7.80;83.70
42141;DHT22;27809;51.864;5.646;2024-03-23T03:26:48;7.80;83.50
42141;DHT22;27809;51.864;5.646;2024-03-23T03:29:15;7.70;83.20
42141;DHT22;27809;51.864;5.646;2024-03-23T03:31:41;7.70;82.80
42141;DHT22;27809;51.864;5.646;2024-03-23T03:34:07;7.70;82.50
42141;DHT22;27809;51.864;5.646;2024-03-23T03:36:32;7.60;82.90
42141;DHT22;27809;51.864;5.646;2024-03-23T03:38:58;7.60;83.50
42141;DHT22;27809;51.864;5.646;2024-03-23T03:41:24;7.60;84.10
42141;DHT22;27809;51.864;5.646;2024-03-23T03:43:49;7.60;83.40
42141;DHT22;27809;51.864;5.646;2024-03-23T03:46:15;7.60;83.10
42141;DHT22;27809;51.864;5.646;2024-03-23T03:48:40;7.60;82.40
42141;DHT22;27809;51.864;5.646;2024-03-23T03:51:06;7.60;82.30
42141;DHT22;27809;51.864;5.646;2024-03-23T03:53:32;7.50;81.20
42141;DHT22;27809;51.864;5.646;2024-03-23T03:56:01;7.50;79.90
42141;DHT22;27809;51.864;5.646;2024-03-23T03:58:27;7.50;78.70
42141;DHT22;27809;51.864;5.646;2024-03-23T04:00:53;7.40;77.00
42141;DHT22;27809;51.864;5.646;2024-03-23T04:03:19;7.30;75.30
42141;DHT22;27809;51.864;5.646;2024-03-23T04:05:53;7.20;73.60
42141;DHT22;27809;51.864;5.646;2024-03-23T04:08:19;7.10;72.50
42141;DHT22;27809;51.864;5.646;2024-03-23T04:10:45;7.00;71.50
42141;DHT22;27809;51.864;5.646;2024-03-23T04:13:11;6.90;71.80
42141;DHT22;27809;51.864;5.646;2024-03-23T04:15:37;6.80;70.70
42141;DHT22;27809;51.864;5.646;2024-03-23T04:18:02;6.70;70.10
42141;DHT22;27809;51.864;5.646;2024-03-23T04:20:28;6.70;69.70
42141;DHT22;27809;51.864;5.646;2024-03-23T04:22:53;6.60;68.80
42141;DHT22;27809;51.864;5.646;2024-03-23T04:25:19;6.50;68.20
42141;DHT22;27809;51.864;5.646;2024-03-23T04:27:45;6.50;68.20
42141;DHT22;27809;51.864;5.646;2024-03-23T04:30:11;6.40;66.80
42141;DHT22;27809;51.864;5.646;2024-03-23T04:32:38;6.40;66.00
42141;DHT22;27809;51.864;5.646;2024-03-23T04:35:04;6.30;65.20
42141;DHT22;27809;51.864;5.646;2024-03-23T04:37:38;6.20;65.00
42141;DHT22;27809;51.864;5.646;2024-03-23T04:40:06;6.10;64.90
42141;DHT22;27809;51.864;5.646;2024-03-23T04:42:33;6.10;64.40
42141;DHT22;27809;51.864;5.646;2024-03-23T04:44:58;6.00;64.00
42141;DHT22;27809;51.864;5.646;2024-03-23T04:47:24;6.00;63.80
42141;DHT22;27809;51.864;5.646;2024-03-23T04:49:49;5.90;63.50
42141;DHT22;27809;51.864;5.646;2024-03-23T04:52:16;5.90;63.60
42141;DHT22;27809;51.864;5.646;2024-03-23T04:54:41;5.80;63.20
42141;DHT22;27809;51.864;5.646;2024-03-23T04:57:07;5.80;62.40
42141;DHT22;27809;51.864;5.646;2024-03-23T04:59:33;5.70;62.20
42141;DHT22;27809;51.864;5.646;2024-03-23T05:01:59;5.70;61.80
42141;DHT22;27809;51.864;5.646;2024-03-23T05:04:25;5.60;61.40
42141;DHT22;27809;51.864;5.646;2024-03-23T05:06:51;5.50;61.00
42141;DHT22;27809;51.864;5.646;2024-03-23T05:09:16;5.50;60.50
42141;DHT22;27809;51.864;5.646;2024-03-23T05:11:42;5.40;60.10
42141;DHT22;27809;51.864;5.646;2024-03-23T05:14:07;5.40;60.10
42141;DHT22;27809;51.864;5.646;2024-03-23T05:16:33;5.40;60.40
42141;DHT22;27809;51.864;5.646;2024-03-23T05:18:59;5.30;59.90
42141;DHT22;27809;51.864;5.646;2024-03-23T05:21:25;5.30;59.80
42141;DHT22;27809;51.864;5.646;2024-03-23T05:23:50;5.20;59.40
42141;DHT22;27809;51.864;5.646;2024-03-23T05:26:17;5.20;59.20
42141;DHT22;27809;51.864;5.646;2024-03-23T05:28:42;5.20;58.80
42141;DHT22;27809;51.864;5.646;2024-03-23T05:31:09;5.10;58.90
42141;DHT22;27809;51.864;5.646;2024-03-23T05:33:36;5.10;59.00
42141;DHT22;27809;51.864;5.646;2024-03-23T05:36:03;5.10;58.90
42141;DHT22;27809;51.864;5.646;2024-03-23T05:38:29;5.00;58.90
42141;DHT22;27809;51.864;5.646;2024-03-23T05:40:55;5.00;58.80
42141;DHT22;27809;51.864;5.646;2024-03-23T05:43:22;5.00;59.00
42141;DHT22;27809;51.864;5.646;2024-03-23T05:45:54;5.10;59.40
42141;DHT22;27809;51.864;5.646;2024-03-23T05:48:20;5.10;60.60
42141;DHT22;27809;51.864;5.646;2024-03-23T05:50:46;5.10;60.30
42141;DHT22;27809;51.864;5.646;2024-03-23T05:53:12;5.10;60.70
42141;DHT22;27809;51.864;5.646;2024-03-23T05:55:38;5.20;61.20
42141;DHT22;27809;51.864;5.646;2024-03-23T05:58:04;5.30;61.60
42141;DHT22;27809;51.864;5.646;2024-03-23T06:00:29;5.30;62.10
42141;DHT22;27809;51.864;5.646;2024-03-23T06:02:55;5.40;62.90
42141;DHT22;27809;51.864;5.646;2024-03-23T06:05:20;5.40;63.50
42141;DHT22;27809;51.864;5.646;2024-03-23T06:07:46;5.50;63.90
42141;DHT22;27809;51.864;5.646;2024-03-23T06:10:11;5.60;64.10
42141;DHT22;27809;51.864;5.646;2024-03-23T06:12:37;5.60;64.40
42141;DHT22;27809;51.864;5.646;2024-03-23T06:15:03;5.70;64.70
42141;DHT22;27809;51.864;5.646;2024-03-23T06:17:28;5.70;65.30
42141;DHT22;27809;51.864;5.646;2024-03-23T06:19:54;5.90;66.70
42141;DHT22;27809;51.864;5.646;2024-03-23T06:22:19;6.00;68.40
42141;DHT22;27809;51.864;5.646;2024-03-23T06:24:46;6.20;69.90
42141;DHT22;27809;51.864;5.646;2024-03-23T06:27:11;6.30;71.00
42141;DHT22;27809;51.864;5.646;2024-03-23T06:29:37;6.40;71.50
42141;DHT22;27809;51.864;5.646;2024-03-23T06:32:02;6.60;71.60
42141;DHT22;27809;51.864;5.646;2024-03-23T06:34:29;6.70;71.60
42141;DHT22;27809;51.864;5.646;2024-03-23T06:36:54;6.70;70.90
42141;DHT22;27809;51.864;5.646;2024-03-23T06:39:20;6.80;70.70
42141;DHT22;27809;51.864;5.646;2024-03-23T06:41:52;6.80;71.20
42141;DHT22;27809;51.864;5.646;2024-03-23T06:44:18;6.90;71.80
42141;DHT22;27809;51.864;5.646;2024-03-23T06:46:44;7.10;72.60
42141;DHT22;27809;51.864;5.646;2024-03-23T06:49:10;7.20;73.50
42141;DHT22;27809;51.864;5.646;2024-03-23T06:51:36;7.30;74.00
42141;DHT22;27809;51.864;5.646;2024-03-23T06:54:03;7.40;74.00
42141;DHT22;27809;51.864;5.646;2024-03-23T06:56:29;7.50;73.00
42141;DHT22;27809;51.864;5.646;2024-03-23T06:58:55;7.50;72.00
42141;DHT22;27809;51.864;5.646;2024-03-23T07:01:20;7.50;70.70
42141;DHT22;27809;51.864;5.646;2024-03-23T07:03:46;7.40;68.50
42141;DHT22;27809;51.864;5.646;2024-03-23T07:06:12;7.30;65.20
42141;DHT22;27809;51.864;5.646;2024-03-23T07:08:37;7.20;63.80
42141;DHT22;27809;51.864;5.646;2024-03-23T07:11:03;7.10;62.70
42141;DHT22;27809;51.864;5.646;2024-03-23T07:13:30;7.00;61.50
42141;DHT22;27809;51.864;5.646;2024-03-23T07:15:56;6.90;60.80
42141;DHT22;27809;51.864;5.646;2024-03-23T07:18:22;6.70;60.90
42141;DHT22;27809;51.864;5.646;2024-03-23T07:20:55;6.70;60.20
42141;DHT22;27809;51.864;5.646;2024-03-23T07:23:24;6.60;60.60
42141;DHT22;27809;51.864;5.646;2024-03-23T07:25:57;6.70;62.10
42141;DHT22;27809;51.864;5.646;2024-03-23T07:28:23;6.70;64.00
42141;DHT22;27809;51.864;5.646;2024-03-23T07:30:48;6.80;66.40
42141;DHT22;27809;51.864;5.646;2024-03-23T07:33:23;7.10;69.60
42141;DHT22;27809;51.864;5.646;2024-03-23T07:35:49;7.40;72.90
42141;DHT22;27809;51.864;5.646;2024-03-23T07:38:14;7.70;77.30
42141;DHT22;27809;51.864;5.646;2024-03-23T07:40:40;8.00;78.00
42141;DHT22;27809;51.864;5.646;2024-03-23T07:43:06;8.20;77.20
42141;DHT22;27809;51.864;5.646;2024-03-23T07:45:31;8.50;76.80
42141;DHT22;27809;51.864;5.646;2024-03-23T07:47:57;8.70;75.80
42141;DHT22;27809;51.864;5.646;2024-03-23T07:50:22;8.90;73.50
42141;DHT22;27809;51.864;5.646;2024-03-23T07:52:48;9.20;72.40
42141;DHT22;27809;51.864;5.646;2024-03-23T07:55:14;9.50;70.90
42141;DHT22;27809;51.864;5.646;2024-03-23T07:57:39;9.70;65.10
42141;DHT22;27809;51.864;5.646;2024-03-23T08:00:05;10.00;62.50
42141;DHT22;27809;51.864;5.646;2024-03-23T08:02:31;10.10;58.00
42141;DHT22;27809;51.864;5.646;2024-03-23T08:04:57;10.30;54.70
42141;DHT22;27809;51.864;5.646;2024-03-23T08:07:22;10.60;50.30
42141;DHT22;27809;51.864;5.646;2024-03-23T08:09:48;10.90;42.40
42141;DHT22;27809;51.864;5.646;2024-03-23T08:12:14;11.20;37.10
42141;DHT22;27809;51.864;5.646;2024-03-23T08:14:39;11.50;30.30
42141;DHT22;27809;51.864;5.646;2024-03-23T08:17:05;11.50;25.60
42141;DHT22;27809;51.864;5.646;2024-03-23T08:19:30;11.60;19.10
42141;DHT22;27809;51.864;5.646;2024-03-23T08:21:56;11.60;12.10
42141;DHT22;27809;51.864;5.646;2024-03-23T08:24:21;11.60;4.10
42141;DHT22;27809;51.864;5.646;2024-03-23T08:26:47;11.80;3.50
42141;DHT22;27809;51.864;5.646;2024-03-23T08:29:12;11.70;1.00
42141;DHT22;27809;51.864;5.646;2024-03-23T08:31:38;11.40;1.00
42141;DHT22;27809;51.864;5.646;2024-03-23T08:34:04;11.80;1.00
42141;DHT22;27809;51.864;5.646;2024-03-23T08:36:29;11.90;1.00
42141;DHT22;27809;51.864;5.646;2024-03-23T08:38:56;11.60;1.00
42141;DHT22;27809;51.864;5.646;2024-03-23T08:41:21;11.70;1.00
42141;DHT22;27809;51.864;5.646;2024-03-23T08:43:47;12.00;1.00
42141;DHT22;27809;51.864;5.646;2024-03-23T08:46:14;12.30;1.00
42141;DHT22;27809;51.864;5.646;2024-03-23T08:48:42;12.00;1.00
42141;DHT22;27809;51.864;5.646;2024-03-23T08:51:10;11.50;1.00
42141;DHT22;27809;51.864;5.646;2024-03-23T08:53:36;11.10;1.00
42141;DHT22;27809;51.864;5.646;2024-03-23T08:56:03;10.80;1.00
42141;DHT22;27809;51.864;5.646;2024-03-23T08:58:30;10.50;1.00
42141;DHT22;27809;51.864;5.646;2024-03-23T09:01:02;10.30;1.00
42141;DHT22;27809;51.864;5.646;2024-03-23T09:03:28;10.00;1.00
42141;DHT22;27809;51.864;5.646;2024-03-23T09:05:54;9.90;1.00
42141;DHT22;27809;51.864;5.646;2024-03-23T09:08:21;10.20;1.00
42141;DHT22;27809;51.864;5.646;2024-03-23T09:10:47;11.20;1.00
42141;DHT22;27809;51.864;5.646;2024-03-23T09:13:12;12.20;1.00
42141;DHT22;27809;51.864;5.646;2024-03-23T09:15:49;12.60;1.00
42141;DHT22;27809;51.864;5.646;2024-03-23T09:18:15;13.00;1.00
42141;DHT22;27809;51.864;5.646;2024-03-23T09:20:41;12.60;1.00
42141;DHT22;27809;51.864;5.646;2024-03-23T09:23:06;12.20;1.00
42141;DHT22;27809;51.864;5.646;2024-03-23T09:25:35;12.30;1.00
42141;DHT22;27809;51.864;5.646;2024-03-23T09:28:01;13.20;1.00
42141;DHT22;27809;51.864;5.646;2024-03-23T09:30:26;13.90;1.00
42141;DHT22;27809;51.864;5.646;2024-03-23T09:32:52;13.60;1.00
42141;DHT22;27809;51.864;5.646;2024-03-23T09:35:17;13.00;1.00
42141;DHT22;27809;51.864;5.646;2024-03-23T09:37:44;12.40;1.00
42141;DHT22;27809;51.864;5.646;2024-03-23T09:40:11;11.90;1.00
42141;DHT22;27809;51.864;5.646;2024-03-23T09:42:37;11.40;1.00
42141;DHT22;27809;51.864;5.646;2024-03-23T09:45:05;10.90;1.00
42141;DHT22;27809;51.864;5.646;2024-03-23T09:47:33;10.70;1.00
42141;DHT22;27809;51.864;5.646;2024-03-23T09:49:59;11.30;1.00
42141;DHT22;27809;51.864;5.646;2024-03-23T09:52:25;12.10;1.00
42141;DHT22;27809;51.864;5.646;2024-03-23T09:54:51;12.80;1.00
42141;DHT22;27809;51.864;5.646;2024-03-23T09:57:16;13.70;1.00
42141;DHT22;27809;51.864;5.646;2024-03-23T09:59:42;14.30;1.00
42141;DHT22;27809;51.864;5.646;2024-03-23T10:02:08;14.90;1.00
42141;DHT22;27809;51.864;5.646;2024-03-23T10:04:39;15.40;1.00
42141;DHT22;27809;51.864;5.646;2024-03-23T10:07:15;15.90;1.00
42141;DHT22;27809;51.864;5.646;2024-03-23T10:09:41;16.40;1.00
42141;DHT22;27809;51.864;5.646;2024-03-23T10:12:24;16.70;1.00
42141;DHT22;27809;51.864;5.646;2024-03-23T10:14:50;17.00;1.00
42141;DHT22;27809;51.864;5.646;2024-03-23T10:19:45;16.70;1.00
42141;DHT22;27809;51.864;5.646;2024-03-23T10:22:14;15.60;1.00
42141;DHT22;27809;51.864;5.646;2024-03-23T10:24:40;14.40;1.00
42141;DHT22;27809;51.864;5.646;2024-03-23T10:27:06;13.50;1.00
42141;DHT22;27809;51.864;5.646;2024-03-23T10:29:31;13.30;1.00
42141;DHT22;27809;51.864;5.646;2024-03-23T10:32:17;13.70;1.00
42141;DHT22;27809;51.864;5.646;2024-03-23T10:34:44;14.40;1.00
42141;DHT22;27809;51.864;5.646;2024-03-23T10:37:10;15.00;1.00
42141;DHT22;27809;51.864;5.646;2024-03-23T10:39:37;15.30;1.00
42141;DHT22;27809;51.864;5.646;2024-03-23T10:42:07;15.50;1.00
42141;DHT22;27809;51.864;5.646;2024-03-23T10:44:33;16.10;1.00
42141;DHT22;27809;51.864;5.646;2024-03-23T10:47:00;16.60;1.00
42141;DHT22;27809;51.864;5.646;2024-03-23T10:49:33;16.80;1.00
42141;DHT22;27809;51.864;5.646;2024-03-23T10:51:59;17.10;1.00
42141;DHT22;27809;51.864;5.646;2024-03-23T10:54:26;17.50;1.00
42141;DHT22;27809;51.864;5.646;2024-03-23T10:57:15;18.00;1.00
42141;DHT22;27809;51.864;5.646;2024-03-23T10:59:43;18.30;1.00
42141;DHT22;27809;51.864;5.646;2024-03-23T11:02:18;18.10;1.00
42141;DHT22;27809;51.864;5.646;2024-03-23T11:04:44;17.30;1.00
42141;DHT22;27809;51.864;5.646;2024-03-23T11:09:53;15.70;1.00
42141;DHT22;27809;51.864;5.646;2024-03-23T11:15:14;15.70;1.00
42141;DHT22;27809;51.864;5.646;2024-03-23T11:17:40;15.70;1.00
42141;DHT22;27809;51.864;5.646;2024-03-23T11:20:06;15.70;1.00
42141;DHT22;27809;51.864;5.646;2024-03-23T11:25:20;15.50;1.00
42141;DHT22;27809;51.864;5.646;2024-03-23T11:27:51;14.90;1.00
42141;DHT22;27809;51.864;5.646;2024-03-23T11:30:20;14.40;1.00
42141;DHT22;27809;51.864;5.646;2024-03-23T11:32:51;13.90;1.00
42141;DHT22;27809;51.864;5.646;2024-03-23T11:35:34;13.40;1.00
42141;DHT22;27809;51.864;5.646;2024-03-23T11:38:15;13.20;1.00
42141;DHT22;27809;51.864;5.646;2024-03-23T11:40:47;12.80;1.00
42141;DHT22;27809;51.864;5.646;2024-03-23T11:43:15;12.40;1.00
42141;DHT22;27809;51.864;5.646;2024-03-23T11:45:51;12.20;1.00
42141;DHT22;27809;51.864;5.646;2024-03-23T11:48:22;12.00;1.00
42141;DHT22;27809;51.864;5.646;2024-03-23T11:50:55;12.10;1.00
42141;DHT22;27809;51.864;5.646;2024-03-23T11:53:22;12.20;1.00
42141;DHT22;27809;51.864;5.646;2024-03-23T11:55:52;12.30;1.00
42141;DHT22;27809;51.864;5.646;2024-03-23T11:58:20;12.20;1.00
42141;DHT22;27809;51.864;5.646;2024-03-23T12:00:59;12.20;1.00
42141;DHT22;27809;51.864;5.646;2024-03-23T12:03:27;12.20;1.00
42141;DHT22;27809;51.864;5.646;2024-03-23T12:05:57;12.20;1.00
42141;DHT22;27809;51.864;5.646;2024-03-23T12:11:11;12.20;1.00
42141;DHT22;27809;51.864;5.646;2024-03-23T12:13:37;12.30;1.00
42141;DHT22;27809;51.864;5.646;2024-03-23T12:16:09;12.50;1.00
42141;DHT22;27809;51.864;5.646;2024-03-23T12:18:35;12.70;1.00
42141;DHT22;27809;51.864;5.646;2024-03-23T12:21:01;12.80;1.00
42141;DHT22;27809;51.864;5.646;2024-03-23T12:23:26;12.90;1.00
42141;DHT22;27809;51.864;5.646;2024-03-23T12:25:52;13.00;1.00
42141;DHT22;27809;51.864;5.646;2024-03-23T12:28:17;13.20;1.00
42141;DHT22;27809;51.864;5.646;2024-03-23T12:30:43;14.30;1.00
42141;DHT22;27809;51.864;5.646;2024-03-23T12:33:09;14.90;1.00
42141;DHT22;27809;51.864;5.646;2024-03-23T12:35:34;15.00;1.00
42141;DHT22;27809;51.864;5.646;2024-03-23T12:38:00;15.00;1.00
42141;DHT22;27809;51.864;5.646;2024-03-23T12:40:26;14.80;1.00
42141;DHT22;27809;51.864;5.646;2024-03-23T12:42:53;14.60;1.00
42141;DHT22;27809;51.864;5.646;2024-03-23T12:45:18;14.50;1.00
42141;DHT22;27809;51.864;5.646;2024-03-23T12:47:44;14.60;1.00
42141;DHT22;27809;51.864;5.646;2024-03-23T12:50:10;14.80;1.00
42141;DHT22;27809;51.864;5.646;2024-03-23T12:52:36;14.90;1.00
42141;DHT22;27809;51.864;5.646;2024-03-23T12:55:02;14.80;1.00
42141;DHT22;27809;51.864;5.646;2024-03-23T12:57:31;14.70;1.00
42141;DHT22;27809;51.864;5.646;2024-03-23T12:59:56;14.60;1.00
42141;DHT22;27809;51.864;5.646;2024-03-23T13:02:22;14.60;1.00
42141;DHT22;27809;51.864;5.646;2024-03-23T13:04:52;14.80;1.00
42141;DHT22;27809;51.864;5.646;2024-03-23T13:07:19;15.20;1.00
42141;DHT22;27809;51.864;5.646;2024-03-23T13:09:45;15.50;1.00
42141;DHT22;27809;51.864;5.646;2024-03-23T13:12:11;15.30;1.00
42141;DHT22;27809;51.864;5.646;2024-03-23T13:14:38;15.00;1.00
42141;DHT22;27809;51.864;5.646;2024-03-23T13:17:03;14.50;1.00
42141;DHT22;27809;51.864;5.646;2024-03-23T13:19:29;14.10;1.00
42141;DHT22;27809;51.864;5.646;2024-03-23T13:22:00;13.70;1.00
42141;DHT22;27809;51.864;5.646;2024-03-23T13:24:27;13.60;1.00
42141;DHT22;27809;51.864;5.646;2024-03-23T13:26:54;13.80;1.00
42141;DHT22;27809;51.864;5.646;2024-03-23T13:29:20;14.10;1.00
42141;DHT22;27809;51.864;5.646;2024-03-23T13:31:46;14.20;1.00
42141;DHT22;27809;51.864;5.646;2024-03-23T13:34:12;14.30;1.00
42141;DHT22;27809;51.864;5.646;2024-03-23T13:36:40;14.20;1.00
42141;DHT22;27809;51.864;5.646;2024-03-23T13:39:07;14.10;1.00
42141;DHT22;27809;51.864;5.646;2024-03-23T13:41:44;13.90;1.00
42141;DHT22;27809;51.864;5.646;2024-03-23T13:44:11;13.50;1.00
42141;DHT22;27809;51.864;5.646;2024-03-23T13:46:37;13.10;1.00
42141;DHT22;27809;51.864;5.646;2024-03-23T13:49:04;12.80;1.00
42141;DHT22;27809;51.864;5.646;2024-03-23T13:51:30;12.50;1.00
42141;DHT22;27809;51.864;5.646;2024-03-23T13:53:56;12.30;1.00
42141;DHT22;27809;51.864;5.646;2024-03-23T13:56:25;12.20;1.00
42141;DHT22;27809;51.864;5.646;2024-03-23T13:58:51;12.20;1.00
42141;DHT22;27809;51.864;5.646;2024-03-23T14:01:17;12.50;1.00
42141;DHT22;27809;51.864;5.646;2024-03-23T14:03:43;13.10;1.00
42141;DHT22;27809;51.864;5.646;2024-03-23T14:06:10;13.60;1.00
42141;DHT22;27809;51.864;5.646;2024-03-23T14:08:36;14.10;1.00
42141;DHT22;27809;51.864;5.646;2024-03-23T14:11:08;14.50;1.00
42141;DHT22;27809;51.864;5.646;2024-03-23T14:13:37;14.30;1.00
42141;DHT22;27809;51.864;5.646;2024-03-23T14:16:03;14.10;1.00
42141;DHT22;27809;51.864;5.646;2024-03-23T14:18:29;14.00;1.00
42141;DHT22;27809;51.864;5.646;2024-03-23T14:20:59;14.10;1.00
42141;DHT22;27809;51.864;5.646;2024-03-23T14:23:30;14.40;1.00
42141;DHT22;27809;51.864;5.646;2024-03-23T14:25:58;14.30;1.00
42141;DHT22;27809;51.864;5.646;2024-03-23T14:28:23;14.10;1.00
42141;DHT22;27809;51.864;5.646;2024-03-23T14:30:50;13.80;1.00
42141;DHT22;27809;51.864;5.646;2024-03-23T14:33:16;13.50;1.00
42141;DHT22;27809;51.864;5.646;2024-03-23T14:35:43;13.10;1.00
42141;DHT22;27809;51.864;5.646;2024-03-23T14:38:08;12.80;1.00
42141;DHT22;27809;51.864;5.646;2024-03-23T14:40:34;12.40;1.00
42141;DHT22;27809;51.864;5.646;2024-03-23T14:42:59;12.10;1.00
42141;DHT22;27809;51.864;5.646;2024-03-23T14:45:25;11.90;1.00
42141;DHT22;27809;51.864;5.646;2024-03-23T14:47:51;11.90;1.00
42141;DHT22;27809;51.864;5.646;2024-03-23T14:50:17;11.90;1.00
42141;DHT22;27809;51.864;5.646;2024-03-23T14:52:44;11.80;1.00
42141;DHT22;27809;51.864;5.646;2024-03-23T14:55:11;11.60;1.00
42141;DHT22;27809;51.864;5.646;2024-03-23T14:57:37;11.50;1.00
42141;DHT22;27809;51.864;5.646;2024-03-23T15:00:08;11.10;1.00
42141;DHT22;27809;51.864;5.646;2024-03-23T15:02:36;10.90;1.00
42141;DHT22;27809;51.864;5.646;2024-03-23T15:05:01;11.00;1.00
42141;DHT22;27809;51.864;5.646;2024-03-23T15:07:29;10.90;1.00
42141;DHT22;27809;51.864;5.646;2024-03-23T15:09:54;10.80;1.00
42141;DHT22;27809;51.864;5.646;2024-03-23T15:12:20;10.70;1.00
42141;DHT22;27809;51.864;5.646;2024-03-23T15:14:47;10.50;1.00
42141;DHT22;27809;51.864;5.646;2024-03-23T15:17:13;10.30;1.00
42141;DHT22;27809;51.864;5.646;2024-03-23T15:19:38;10.10;1.00
42141;DHT22;27809;51.864;5.646;2024-03-23T15:22:04;10.00;1.00
42141;DHT22;27809;51.864;5.646;2024-03-23T15:24:30;9.90;1.00
42141;DHT22;27809;51.864;5.646;2024-03-23T15:26:56;9.80;1.00
42141;DHT22;27809;51.864;5.646;2024-03-23T15:29:22;9.70;1.00
42141;DHT22;27809;51.864;5.646;2024-03-23T15:31:48;9.70;1.00
42141;DHT22;27809;51.864;5.646;2024-03-23T15:34:20;10.00;1.00
42141;DHT22;27809;51.864;5.646;2024-03-23T15:36:49;10.20;1.00
42141;DHT22;27809;51.864;5.646;2024-03-23T15:39:18;10.40;1.00
42141;DHT22;27809;51.864;5.646;2024-03-23T15:41:45;10.40;1.00
42141;DHT22;27809;51.864;5.646;2024-03-23T15:44:11;10.40;1.00
42141;DHT22;27809;51.864;5.646;2024-03-23T15:46:36;10.50;1.00
42141;DHT22;27809;51.864;5.646;2024-03-23T15:49:02;10.50;1.00
42141;DHT22;27809;51.864;5.646;2024-03-23T15:51:27;10.50;1.00
42141;DHT22;27809;51.864;5.646;2024-03-23T15:54:00;10.50;1.00
42141;DHT22;27809;51.864;5.646;2024-03-23T15:56:26;10.50;1.00
42141;DHT22;27809;51.864;5.646;2024-03-23T15:58:54;10.40;1.00
42141;DHT22;27809;51.864;5.646;2024-03-23T16:01:19;10.30;1.00
42141;DHT22;27809;51.864;5.646;2024-03-23T16:03:45;10.30;1.00
42141;DHT22;27809;51.864;5.646;2024-03-23T16:06:11;10.30;1.00
42141;DHT22;27809;51.864;5.646;2024-03-23T16:08:37;10.30;1.00
42141;DHT22;27809;51.864;5.646;2024-03-23T16:11:06;10.30;1.00
42141;DHT22;27809;51.864;5.646;2024-03-23T16:13:33;10.30;1.00
42141;DHT22;27809;51.864;5.646;2024-03-23T16:16:03;10.40;1.00
42141;DHT22;27809;51.864;5.646;2024-03-23T16:18:32;10.50;1.00
42141;DHT22;27809;51.864;5.646;2024-03-23T16:21:02;10.30;1.00
42141;DHT22;27809;51.864;5.646;2024-03-23T16:23:28;10.10;1.00
42141;DHT22;27809;51.864;5.646;2024-03-23T16:25:54;9.90;1.00
42141;DHT22;27809;51.864;5.646;2024-03-23T16:28:37;9.80;1.00
42141;DHT22;27809;51.864;5.646;2024-03-23T16:31:07;9.90;1.00
42141;DHT22;27809;51.864;5.646;2024-03-23T16:33:34;9.90;1.00
42141;DHT22;27809;51.864;5.646;2024-03-23T16:36:08;9.80;1.00
42141;DHT22;27809;51.864;5.646;2024-03-23T16:38:40;9.70;1.00
42141;DHT22;27809;51.864;5.646;2024-03-23T16:41:08;9.70;1.00
42141;DHT22;27809;51.864;5.646;2024-03-23T16:43:34;9.50;1.00
42141;DHT22;27809;51.864;5.646;2024-03-23T16:46:05;9.40;1.00
42141;DHT22;27809;51.864;5.646;2024-03-23T16:48:32;9.30;1.00
42141;DHT22;27809;51.864;5.646;2024-03-23T16:51:00;9.30;1.00
42141;DHT22;27809;51.864;5.646;2024-03-23T16:53:26;9.20;1.00